createdAt,value
2022-08-11T00:01:25.705Z,99.90
2022-08-11T00:04:01.456Z,99.90
2022-08-11T00:06:37.909Z,99.90
2022-08-11T00:09:08.194Z,99.90
2022-08-11T00:11:47.071Z,99.90
2022-08-11T00:14:24.691Z,99.90
2022-08-11T00:17:10.941Z,99.90
2022-08-11T00:20:13.794Z,99.90
2022-08-11T00:22:30.531Z,99.90
2022-08-11T00:25:02.326Z,99.90
2022-08-11T00:27:39.778Z,99.90
2022-08-11T00:30:11.851Z,99.90
2022-08-11T00:32:41.661Z,99.90
2022-08-11T00:35:51.301Z,99.90
2022-08-11T00:38:01.182Z,99.90
2022-08-11T00:40:39.925Z,99.90
2022-08-11T00:43:30.721Z,99.90
2022-08-11T00:46:21.867Z,99.90
2022-08-11T00:49:19.689Z,99.90
2022-08-11T00:52:09.702Z,99.90
2022-08-11T00:54:39.609Z,99.90
2022-08-11T00:57:36.888Z,99.90
2022-08-11T01:00:16.991Z,99.90
2022-08-11T01:03:02.608Z,99.90
2022-08-11T01:05:55.487Z,99.90
2022-08-11T01:08:54.470Z,99.90
2022-08-11T01:11:58.379Z,99.90
2022-08-11T01:15:15.193Z,99.90
2022-08-11T01:18:31.295Z,99.90
2022-08-11T01:21:18.835Z,99.90
2022-08-11T01:23:55.133Z,99.90
2022-08-11T01:26:40.642Z,99.90
2022-08-11T01:29:17.629Z,99.90
2022-08-11T01:32:11.561Z,99.90
2022-08-11T01:34:57.493Z,99.90
2022-08-11T01:37:52.334Z,99.90
2022-08-11T01:40:43.441Z,99.90
2022-08-11T01:43:28.915Z,99.90
2022-08-11T01:46:19.913Z,99.90
2022-08-11T01:48:46.765Z,99.90
2022-08-11T01:51:27.165Z,99.90
2022-08-11T01:54:12.602Z,99.90
2022-08-11T01:57:20.826Z,99.90
2022-08-11T02:00:00.338Z,99.90
2022-08-11T02:02:58.378Z,99.90
2022-08-11T02:06:02.871Z,99.90
2022-08-11T02:09:15.978Z,99.90
2022-08-11T02:11:50.517Z,99.90
2022-08-11T02:14:41.462Z,99.90
2022-08-11T02:17:54.894Z,99.90
2022-08-11T02:20:51.591Z,99.90
2022-08-11T02:24:05.183Z,99.90
2022-08-11T02:26:50.658Z,99.90
2022-08-11T02:29:37.975Z,99.90
2022-08-11T02:32:44.448Z,99.90
2022-08-11T02:35:28.087Z,99.90
2022-08-11T02:38:08.963Z,99.90
2022-08-11T02:40:54.757Z,99.90
2022-08-11T02:43:40.909Z,99.90
2022-08-11T02:46:50.274Z,99.90
2022-08-11T02:50:00.072Z,99.90
2022-08-11T02:53:06.798Z,99.90
2022-08-11T02:55:58.341Z,99.90
2022-08-11T02:59:11.423Z,99.90
2022-08-11T03:02:00.621Z,99.90
2022-08-11T03:04:55.536Z,99.90
2022-08-11T03:07:36.387Z,99.90
2022-08-11T03:10:23.557Z,99.90
2022-08-11T03:13:21.172Z,99.90
2022-08-11T03:16:34.242Z,99.90
2022-08-11T03:19:24.343Z,99.90
2022-08-11T03:22:06.265Z,99.90
2022-08-11T03:24:56.151Z,99.90
2022-08-11T03:28:02.573Z,99.90
2022-08-11T03:30:47.565Z,99.90
2022-08-11T03:33:51.119Z,99.90
2022-08-11T03:37:14.832Z,99.90
2022-08-11T03:40:09.037Z,99.90
2022-08-11T03:42:54.274Z,99.90
2022-08-11T03:45:21.218Z,99.90
2022-08-11T03:48:09.327Z,99.90
2022-08-11T03:51:20.751Z,99.90
2022-08-11T03:53:56.866Z,99.90
2022-08-11T03:56:45.135Z,99.90
2022-08-11T03:59:50.109Z,99.90
2022-08-11T04:02:32.469Z,99.90
2022-08-11T04:05:39.422Z,99.90
2022-08-11T04:08:50.541Z,99.90
2022-08-11T04:11:29.550Z,99.90
2022-08-11T04:14:59.598Z,99.90
2022-08-11T04:17:41.352Z,99.90
2022-08-11T04:20:31.193Z,99.90
2022-08-11T04:23:04.248Z,99.90
2022-08-11T04:25:33.885Z,99.90
2022-08-11T04:28:49.951Z,99.90
2022-08-11T04:31:44.341Z,99.90
2022-08-11T04:34:57.961Z,99.90
2022-08-11T04:37:43.479Z,99.90
2022-08-11T04:40:55.103Z,99.90
2022-08-11T04:44:07.363Z,99.90
2022-08-11T04:47:12.067Z,99.90
2022-08-11T04:50:28.854Z,99.90
2022-08-11T04:53:56.231Z,99.90
2022-08-11T04:57:04.677Z,99.90
2022-08-11T05:00:14.748Z,99.90
2022-08-11T05:03:17.850Z,99.90
2022-08-11T05:06:22.843Z,99.90
2022-08-11T05:09:13.082Z,99.90
2022-08-11T05:11:45.869Z,99.90
2022-08-11T05:14:31.555Z,99.90
2022-08-11T05:17:22.614Z,99.90
2022-08-11T05:20:08.282Z,99.90
2022-08-11T05:22:55.295Z,99.90
2022-08-11T05:26:45.427Z,99.90
2022-08-11T05:29:19.304Z,99.90
2022-08-11T05:32:14.682Z,99.90
2022-08-11T05:34:54.233Z,99.90
2022-08-11T05:37:34.635Z,99.90
2022-08-11T05:40:31.858Z,99.90
2022-08-11T05:43:23.967Z,99.90
2022-08-11T05:46:21.513Z,99.90
2022-08-11T05:49:08.323Z,99.90
2022-08-11T05:52:05.387Z,99.90
2022-08-11T05:55:06.169Z,99.90
2022-08-11T05:57:48.476Z,99.90
2022-08-11T06:00:19.617Z,99.90
2022-08-11T06:02:51.237Z,99.90
2022-08-11T06:05:19.674Z,99.90
2022-08-11T06:07:54.004Z,99.90
2022-08-11T06:10:35.656Z,99.90
2022-08-11T06:13:03.579Z,99.90
2022-08-11T06:15:32.791Z,99.90
2022-08-11T06:18:01.446Z,99.90
2022-08-11T06:20:36.903Z,99.90
2022-08-11T06:23:07.440Z,99.90
2022-08-11T06:25:37.256Z,99.90
2022-08-11T06:28:08.379Z,99.90
2022-08-11T06:30:45.079Z,99.90
2022-08-11T06:33:17.179Z,99.90
2022-08-11T06:36:07.628Z,99.90
2022-08-11T06:39:01.423Z,99.90
2022-08-11T06:41:38.451Z,99.90
2022-08-11T06:44:14.587Z,99.90
2022-08-11T06:46:48.051Z,99.90
2022-08-11T06:49:36.447Z,99.90
2022-08-11T06:52:34.903Z,99.90
2022-08-11T06:55:54.815Z,99.90
2022-08-11T06:58:15.138Z,99.90
2022-08-11T07:00:42.503Z,99.90
2022-08-11T07:03:16.683Z,99.90
2022-08-11T07:05:58.720Z,99.90
2022-08-11T07:09:10.249Z,99.90
2022-08-11T07:12:17.358Z,99.90
2022-08-11T07:15:10.550Z,99.90
2022-08-11T07:17:49.890Z,99.90
2022-08-11T07:20:36.698Z,99.90
2022-08-11T07:23:25.672Z,99.90
2022-08-11T07:26:13.087Z,99.90
2022-08-11T07:29:01.015Z,99.90
2022-08-11T07:31:37.369Z,99.90
2022-08-11T07:34:28.160Z,99.90
2022-08-11T07:36:58.736Z,99.90
2022-08-11T07:39:33.541Z,99.90
2022-08-11T07:42:06.808Z,99.90
2022-08-11T07:44:55.146Z,99.90
2022-08-11T07:47:42.484Z,99.90
2022-08-11T07:50:29.336Z,99.90
2022-08-11T07:52:59.695Z,99.90
2022-08-11T07:55:51.035Z,99.90
2022-08-11T07:58:52.276Z,99.90
2022-08-11T08:01:42.129Z,99.90
2022-08-11T08:04:30.243Z,99.90
2022-08-11T08:07:16.906Z,99.90
2022-08-11T08:10:03.244Z,99.90
2022-08-11T08:12:50.538Z,99.90
2022-08-11T08:15:39.152Z,99.90
2022-08-11T08:18:20.585Z,99.90
2022-08-11T08:20:55.026Z,99.90
2022-08-11T08:23:35.417Z,99.90
2022-08-11T08:26:05.855Z,99.90
2022-08-11T08:28:46.652Z,99.90
2022-08-11T08:31:14.816Z,99.90
2022-08-11T08:33:43.019Z,99.90
2022-08-11T08:36:15.133Z,99.90
2022-08-11T08:38:50.544Z,99.90
2022-08-11T08:41:25.103Z,99.90
2022-08-11T08:43:59.851Z,99.90
2022-08-11T08:46:46.239Z,99.90
2022-08-11T08:49:24.594Z,99.90
2022-08-11T08:52:19.168Z,99.90
2022-08-11T08:54:46.031Z,99.90
2022-08-11T08:57:14.151Z,99.90
2022-08-11T08:59:48.822Z,99.90
2022-08-11T09:02:33.593Z,99.90
2022-08-11T09:05:04.034Z,99.90
2022-08-11T09:07:38.468Z,99.90
2022-08-11T09:10:11.267Z,99.90
2022-08-11T09:12:42.850Z,99.90
2022-08-11T09:15:12.557Z,99.90
2022-08-11T09:17:41.710Z,99.90
2022-08-11T09:20:10.140Z,99.90
2022-08-11T09:23:41.401Z,99.90
2022-08-11T09:26:04.291Z,99.90
2022-08-11T09:28:31.713Z,99.90
2022-08-11T09:31:01.240Z,99.90
2022-08-11T09:33:30.527Z,99.90
2022-08-11T09:35:58.474Z,99.90
2022-08-11T09:38:49.594Z,99.90
2022-08-11T09:41:17.162Z,99.90
2022-08-11T09:44:04.742Z,99.90
2022-08-11T09:46:33.431Z,99.90
2022-08-11T09:49:02.294Z,99.90
2022-08-11T09:51:32.446Z,99.90
2022-08-11T09:54:07.453Z,99.90
2022-08-11T09:56:53.352Z,99.90
2022-08-11T09:59:22.761Z,99.90
2022-08-11T10:01:59.400Z,99.20
2022-08-11T10:04:48.534Z,99.30
2022-08-11T10:07:16.870Z,98.20
2022-08-11T10:09:43.733Z,97.90
2022-08-11T10:12:14.660Z,98.60
2022-08-11T10:15:03.916Z,97.60
2022-08-11T10:17:39.587Z,98.50
2022-08-11T10:20:08.963Z,97.70
2022-08-11T10:22:54.724Z,98.40
2022-08-11T10:25:40.873Z,97.50
2022-08-11T10:28:32.843Z,95.90
2022-08-11T10:31:16.667Z,95.20
2022-08-11T10:34:01.629Z,96.30
2022-08-11T10:36:34.809Z,96.20
2022-08-11T10:39:04.571Z,94.30
2022-08-11T10:42:06.168Z,93.60
2022-08-11T10:44:43.365Z,93.20
2022-08-11T10:47:31.226Z,93.60
2022-08-11T10:50:17.524Z,97.10
2022-08-11T10:53:06.663Z,91.60
2022-08-11T10:55:54.159Z,92.60
2022-08-11T10:58:45.240Z,92.20
2022-08-11T11:01:13.269Z,90.20
2022-08-11T11:03:41.148Z,92.10
2022-08-11T11:06:27.607Z,90.30
2022-08-11T11:09:25.742Z,90.50
2022-08-11T11:12:17.987Z,90.50
2022-08-11T11:15:07.007Z,90.30
2022-08-11T11:17:56.214Z,88.90
2022-08-11T11:20:47.491Z,90.10
2022-08-11T11:23:47.565Z,90.00
2022-08-11T11:26:56.363Z,89.10
2022-08-11T11:29:35.250Z,88.30
2022-08-11T11:32:26.503Z,86.40
2022-08-11T11:34:58.322Z,80.40
2022-08-11T11:37:26.128Z,80.90
2022-08-11T11:39:55.291Z,81.50
2022-08-11T11:42:23.057Z,81.50
2022-08-11T11:44:54.158Z,77.30
2022-08-11T11:47:23.840Z,80.10
2022-08-11T11:49:51.408Z,80.30
2022-08-11T11:52:21.154Z,77.80
2022-08-11T11:54:50.904Z,76.20
2022-08-11T11:57:39.112Z,75.40
2022-08-11T12:00:33.137Z,74.90
2022-08-11T12:03:03.739Z,75.80
2022-08-11T12:05:34.016Z,72.50
2022-08-11T12:08:18.762Z,74.70
2022-08-11T12:10:48.686Z,76.20
2022-08-11T12:13:37.038Z,75.60
2022-08-11T12:16:33.759Z,74.40
2022-08-11T12:18:58.252Z,73.10
2022-08-11T12:21:27.648Z,73.90
2022-08-11T12:24:19.567Z,72.40
2022-08-11T12:27:14.998Z,71.70
2022-08-11T12:29:41.241Z,72.50
2022-08-11T12:32:11.748Z,73.20
2022-08-11T12:34:38.989Z,72.30
2022-08-11T12:37:11.031Z,74.00
2022-08-11T12:40:05.765Z,72.60
2022-08-11T12:43:08.255Z,72.90
2022-08-11T12:45:48.866Z,74.60
2022-08-11T12:48:59.111Z,77.60
2022-08-11T12:52:10.974Z,75.20
2022-08-11T12:55:13.159Z,80.00
2022-08-11T12:58:05.589Z,84.70
2022-08-11T13:00:52.269Z,83.90
2022-08-11T13:03:40.262Z,81.90
2022-08-11T13:06:08.404Z,83.70
2022-08-11T13:08:39.263Z,82.70
2022-08-11T13:11:55.682Z,84.70
2022-08-11T13:14:15.301Z,82.00
2022-08-11T13:17:03.777Z,84.60
2022-08-11T13:19:32.208Z,83.40
2022-08-11T13:22:02.450Z,83.70
2022-08-11T13:24:31.093Z,82.50
2022-08-11T13:26:58.897Z,81.60
2022-08-11T13:29:28.037Z,82.40
2022-08-11T13:31:58.328Z,83.30
2022-08-11T13:34:27.423Z,83.10
2022-08-11T13:37:00.878Z,84.00
2022-08-11T13:39:30.343Z,84.10
2022-08-11T13:41:59.663Z,84.70
2022-08-11T13:44:32.032Z,85.60
2022-08-11T13:47:04.641Z,84.70
2022-08-11T13:49:35.036Z,84.70
2022-08-11T13:52:04.047Z,88.10
2022-08-11T13:54:33.847Z,86.50
2022-08-11T13:57:08.192Z,86.00
2022-08-11T13:59:45.288Z,85.40
2022-08-11T14:02:28.435Z,86.30
2022-08-11T14:04:59.102Z,86.50
2022-08-11T14:07:36.902Z,86.30
2022-08-11T14:10:06.727Z,87.00
2022-08-11T14:12:55.655Z,88.00
2022-08-11T14:15:27.242Z,88.20
2022-08-11T14:18:17.588Z,87.20
2022-08-11T14:21:05.723Z,86.30
2022-08-11T14:23:45.106Z,88.40
2022-08-11T14:26:28.280Z,86.60
2022-08-11T14:29:14.581Z,86.20
2022-08-11T14:31:49.091Z,86.70
2022-08-11T14:34:21.304Z,86.40
2022-08-11T14:36:54.454Z,86.00
2022-08-11T14:39:36.017Z,85.10
2022-08-11T14:42:24.832Z,86.70
2022-08-11T14:45:19.748Z,85.90
2022-08-11T14:47:53.301Z,86.50
2022-08-11T14:50:26.990Z,84.40
2022-08-11T14:52:58.085Z,86.90
2022-08-11T14:55:46.908Z,87.00
2022-08-11T14:58:18.041Z,86.50
2022-08-11T15:00:45.624Z,86.40
2022-08-11T15:03:15.417Z,85.40
2022-08-11T15:05:56.377Z,89.00
2022-08-11T15:08:56.944Z,89.30
2022-08-11T15:11:49.924Z,87.80
2022-08-11T15:14:37.781Z,89.30
2022-08-11T15:17:11.466Z,89.00
2022-08-11T15:20:04.178Z,87.60
2022-08-11T15:22:50.093Z,87.30
2022-08-11T15:25:17.289Z,89.40
2022-08-11T15:28:06.246Z,87.70
2022-08-11T15:30:52.872Z,86.70
2022-08-11T15:33:40.421Z,88.00
2022-08-11T15:36:27.779Z,87.30
2022-08-11T15:38:59.726Z,88.10
2022-08-11T15:42:12.684Z,87.50
2022-08-11T15:45:03.732Z,87.60
2022-08-11T15:47:41.786Z,86.10
2022-08-11T15:50:15.250Z,86.40
2022-08-11T15:52:52.183Z,87.50
2022-08-11T15:55:20.005Z,87.30
2022-08-11T15:58:09.073Z,87.70
2022-08-11T16:00:59.096Z,88.60
2022-08-11T16:04:07.782Z,89.70
2022-08-11T16:06:55.868Z,89.20
2022-08-11T16:09:42.986Z,89.60
2022-08-11T16:12:29.119Z,90.00
2022-08-11T16:15:20.025Z,90.10
2022-08-11T16:17:53.566Z,90.50
2022-08-11T16:20:26.332Z,90.40
2022-08-11T16:23:02.505Z,90.90
2022-08-11T16:27:04.683Z,91.00
2022-08-11T16:28:22.108Z,91.10
2022-08-11T16:30:50.230Z,91.90
2022-08-11T16:33:50.636Z,91.90
2022-08-11T16:36:28.176Z,92.10
2022-08-11T16:38:56.921Z,92.00
2022-08-11T16:41:46.528Z,92.50
2022-08-11T16:44:37.699Z,92.20
2022-08-11T16:47:08.582Z,92.70
2022-08-11T16:49:39.228Z,92.10
2022-08-11T16:52:12.257Z,92.80
2022-08-11T16:54:44.420Z,92.80
2022-08-11T16:57:52.401Z,92.30
2022-08-11T17:00:19.506Z,92.60
2022-08-11T17:03:11.193Z,93.50
2022-08-11T17:06:03.820Z,93.00
2022-08-11T17:08:57.461Z,93.40
2022-08-11T17:11:47.952Z,93.60
2022-08-11T17:14:36.119Z,94.00
2022-08-11T17:17:13.700Z,93.90
2022-08-11T17:20:39.430Z,94.10
2022-08-11T17:22:57.570Z,94.40
2022-08-11T17:25:29.151Z,94.70
2022-08-11T17:27:57.150Z,95.20
2022-08-11T17:30:45.283Z,95.80
2022-08-11T17:33:32.140Z,95.50
2022-08-11T17:36:00.691Z,95.80
2022-08-11T17:38:28.755Z,96.00
2022-08-11T17:41:23.595Z,95.90
2022-08-11T17:44:11.726Z,95.90
2022-08-11T17:47:03.652Z,96.60
2022-08-11T17:49:37.773Z,97.20
2022-08-11T17:52:24.991Z,96.80
2022-08-11T17:55:13.519Z,96.50
2022-08-11T17:58:00.512Z,96.80
2022-08-11T18:00:27.912Z,97.10
2022-08-11T18:03:15.597Z,97.40
2022-08-11T18:05:44.552Z,97.80
2022-08-11T18:08:32.355Z,97.50
2022-08-11T18:12:00.053Z,97.60
2022-08-11T18:14:27.436Z,98.10
2022-08-11T18:17:13.067Z,98.30
2022-08-11T18:19:58.956Z,98.80
2022-08-11T18:22:50.072Z,98.80
2022-08-11T18:25:54.356Z,99.40
2022-08-11T18:28:45.941Z,98.10
2022-08-11T18:31:34.788Z,99.30
2022-08-11T18:34:29.514Z,99.60
2022-08-11T18:37:29.572Z,99.70
2022-08-11T18:40:24.615Z,99.80
2022-08-11T18:43:12.102Z,99.90
2022-08-11T18:46:06.445Z,99.90
2022-08-11T18:48:57.664Z,99.90
2022-08-11T18:51:45.173Z,99.90
2022-08-11T18:54:32.666Z,99.90
2022-08-11T18:57:22.416Z,99.90
2022-08-11T19:00:11.231Z,99.90
2022-08-11T19:02:59.176Z,99.90
2022-08-11T19:06:31.979Z,99.90
2022-08-11T19:09:00.220Z,99.90
2022-08-11T19:11:47.750Z,99.90
2022-08-11T19:14:37.155Z,99.90
2022-08-11T19:17:43.498Z,99.90
2022-08-11T19:20:34.809Z,99.90
2022-08-11T19:23:22.010Z,99.90
2022-08-11T19:26:08.551Z,99.90
2022-08-11T19:28:57.518Z,99.90
2022-08-11T19:31:45.226Z,99.90
2022-08-11T19:34:37.709Z,99.90
2022-08-11T19:37:25.825Z,99.90
2022-08-11T19:40:19.572Z,99.90
2022-08-11T19:43:11.079Z,99.90
2022-08-11T19:46:05.814Z,99.90
2022-08-11T19:48:52.105Z,99.90
2022-08-11T19:51:38.816Z,99.90
2022-08-11T19:54:25.221Z,99.90
2022-08-11T19:57:16.120Z,99.90
2022-08-11T20:00:02.769Z,99.90
2022-08-11T20:02:48.326Z,99.90
2022-08-11T20:05:33.913Z,99.90
2022-08-11T20:08:19.821Z,99.90
2022-08-11T20:11:07.301Z,99.90
2022-08-11T20:13:54.233Z,99.90
2022-08-11T20:16:42.215Z,99.90
2022-08-11T20:19:56.481Z,99.90
2022-08-11T20:22:36.946Z,99.90
2022-08-11T20:25:24.038Z,99.90
2022-08-11T20:28:11.370Z,99.90
2022-08-11T20:30:58.105Z,99.90
2022-08-11T20:33:44.599Z,99.90
2022-08-11T20:36:32.477Z,99.90
2022-08-11T20:39:19.332Z,99.90
2022-08-11T20:42:07.302Z,99.90
2022-08-11T20:44:55.431Z,99.90
2022-08-11T20:47:58.928Z,99.90
2022-08-11T20:50:46.902Z,99.90
2022-08-11T20:53:35.901Z,99.90
2022-08-11T20:56:28.811Z,99.90
2022-08-11T20:59:18.740Z,99.90
2022-08-11T21:02:10.082Z,99.90
2022-08-11T21:04:57.704Z,99.90
2022-08-11T21:07:56.945Z,99.90
2022-08-11T21:10:51.145Z,99.90
2022-08-11T21:13:40.556Z,99.90
2022-08-11T21:16:27.680Z,99.90
2022-08-11T21:20:00.453Z,99.90
2022-08-11T21:22:37.386Z,99.90
2022-08-11T21:25:25.983Z,99.90
2022-08-11T21:28:14.417Z,99.90
2022-08-11T21:31:01.217Z,99.90
2022-08-11T21:33:49.836Z,99.90
2022-08-11T21:36:37.647Z,99.90
2022-08-11T21:39:25.445Z,99.90
2022-08-11T21:42:13.143Z,99.90
2022-08-11T21:45:01.234Z,99.90
2022-08-11T21:47:48.557Z,99.90
2022-08-11T21:50:34.889Z,99.90
2022-08-11T21:53:21.070Z,99.90
2022-08-11T21:56:08.701Z,99.90
2022-08-11T21:58:55.207Z,99.90
2022-08-11T22:01:42.128Z,99.90
2022-08-11T22:04:28.698Z,99.90
2022-08-11T22:07:15.521Z,99.90
2022-08-11T22:10:01.113Z,99.90
2022-08-11T22:13:06.947Z,99.90
2022-08-11T22:15:52.679Z,99.90
2022-08-11T22:18:38.069Z,99.90
2022-08-11T22:22:01.765Z,99.90
2022-08-11T22:24:30.615Z,99.90
2022-08-11T22:27:16.283Z,99.90
2022-08-11T22:30:01.920Z,99.90
2022-08-11T22:32:48.495Z,99.90
2022-08-11T22:35:35.274Z,99.90
2022-08-11T22:38:22.119Z,99.90
2022-08-11T22:41:07.639Z,99.90
2022-08-11T22:43:53.409Z,99.90
2022-08-11T22:46:40.358Z,99.90
2022-08-11T22:49:27.719Z,99.90
2022-08-11T22:52:14.211Z,99.90
2022-08-11T22:55:05.112Z,99.90
2022-08-11T22:58:00.761Z,99.90
2022-08-11T23:00:47.407Z,99.90
2022-08-11T23:03:37.782Z,99.90
2022-08-11T23:06:25.542Z,99.90
2022-08-11T23:09:12.385Z,99.90
2022-08-11T23:12:07.959Z,99.90
2022-08-11T23:14:57.257Z,99.90
2022-08-11T23:17:43.451Z,99.90
2022-08-11T23:20:33.642Z,99.90
2022-08-11T23:23:21.561Z,99.90
2022-08-11T23:26:11.212Z,99.90
2022-08-11T23:28:59.175Z,99.90
2022-08-11T23:31:51.648Z,99.90
2022-08-11T23:35:03.514Z,99.90
2022-08-11T23:37:51.393Z,99.90
2022-08-11T23:40:37.380Z,99.90
2022-08-11T23:43:23.517Z,99.90
2022-08-11T23:46:09.293Z,99.90
2022-08-11T23:48:56.880Z,99.90
2022-08-11T23:51:43.600Z,99.90
2022-08-11T23:54:32.636Z,99.90
2022-08-11T23:57:22.701Z,99.90
